Dufur, Oregon
Current Conditions -  °F | °C
As of 10:53 PM on Saturday 22 Nov 2014 (Local Time) from KDLS Reporting Station
Scattered Clouds Scattered Clouds  
Wind Chill: 47°   Ceiling: Unl
Heat Index: 49°   Visibility: 10mi
Dew Point: 37°   Wind: 5mph
Humidity: 64%   Direction: NA
Pressure: 30.16"   Gusts: NA
Location:  45.45°N, 121.13°W
Report Text: KDLS 230653Z AUTO VRB04KT 10SM SCT050 09/03 A3016 RMK AO2 SLP213 T00940028 $
Loading
Personal Weather Stations






























Interactive Weather Map New forecast layout! Learn more

10-Day Weather Forecast

Advertisements
Track Severe Weather on mobile